sensor_id;sensor_type;location;lat;lon;timestamp;pressure;altitude;pressure_sealevel;temperature;humidity
50394;BME280;36308;46.312;25.288;2023-02-04T00:01:46;95375.69;;;0.18;70.20
50394;BME280;36308;46.312;25.288;2023-02-04T00:04:12;95389.47;;;0.27;70.00
50394;BME280;36308;46.312;25.288;2023-02-04T00:06:38;95376.69;;;0.24;70.03
50394;BME280;36308;46.312;25.288;2023-02-04T00:09:03;95381.78;;;0.25;70.01
50394;BME280;36308;46.312;25.288;2023-02-04T00:11:29;95363.91;;;0.14;70.11
50394;BME280;36308;46.312;25.288;2023-02-04T00:13:55;95374.03;;;0.24;70.04
50394;BME280;36308;46.312;25.288;2023-02-04T00:16:20;95383.38;;;0.26;70.04
50394;BME280;36308;46.312;25.288;2023-02-04T00:18:46;95373.84;;;0.25;69.79
50394;BME280;36308;46.312;25.288;2023-02-04T00:21:11;95367.94;;;0.23;69.77
50394;BME280;36308;46.312;25.288;2023-02-04T00:23:36;95371.19;;;0.25;70.18
50394;BME280;36308;46.312;25.288;2023-02-04T00:26:02;95356.97;;;0.19;69.51
50394;BME280;36308;46.312;25.288;2023-02-04T00:28:28;95359.78;;;0.25;69.88
50394;BME280;36308;46.312;25.288;2023-02-04T00:30:53;95366.28;;;0.29;69.85
50394;BME280;36308;46.312;25.288;2023-02-04T00:33:19;95356.78;;;0.21;69.71
50394;BME280;36308;46.312;25.288;2023-02-04T00:35:44;95351.66;;;0.26;69.84
50394;BME280;36308;46.312;25.288;2023-02-04T00:38:10;95342.94;;;0.19;69.87
50394;BME280;36308;46.312;25.288;2023-02-04T00:40:36;95349.00;;;0.26;69.75
50394;BME280;36308;46.312;25.288;2023-02-04T00:43:01;95352.47;;;0.27;70.00
50394;BME280;36308;46.312;25.288;2023-02-04T00:45:27;95344.75;;;0.25;69.61
50394;BME280;36308;46.312;25.288;2023-02-04T00:47:52;95333.94;;;0.27;69.50
50394;BME280;36308;46.312;25.288;2023-02-04T00:50:18;95333.16;;;0.26;69.47
50394;BME280;36308;46.312;25.288;2023-02-04T00:52:43;95318.56;;;0.17;69.84
50394;BME280;36308;46.312;25.288;2023-02-04T00:55:09;95315.91;;;0.17;69.84
50394;BME280;36308;46.312;25.288;2023-02-04T00:57:37;95328.91;;;0.25;69.56
50394;BME280;36308;46.312;25.288;2023-02-04T01:00:03;95311.44;;;0.17;70.09
50394;BME280;36308;46.312;25.288;2023-02-04T01:02:29;95321.16;;;0.24;70.21
50394;BME280;36308;46.312;25.288;2023-02-04T01:04:54;95323.59;;;0.25;70.03
50394;BME280;36308;46.312;25.288;2023-02-04T01:07:20;95320.13;;;0.25;70.18
50394;BME280;36308;46.312;25.288;2023-02-04T01:09:46;95305.50;;;0.22;69.93
50394;BME280;36308;46.312;25.288;2023-02-04T01:12:11;95300.47;;;0.14;70.25
50394;BME280;36308;46.312;25.288;2023-02-04T01:14:37;95307.34;;;0.22;69.86
50394;BME280;36308;46.312;25.288;2023-02-04T01:17:02;95306.31;;;0.23;70.00
50394;BME280;36308;46.312;25.288;2023-02-04T01:19:28;95299.22;;;0.23;70.22
50394;BME280;36308;46.312;25.288;2023-02-04T01:21:53;95274.88;;;0.08;70.06
50394;BME280;36308;46.312;25.288;2023-02-04T01:24:19;95296.56;;;0.23;69.65
50394;BME280;36308;46.312;25.288;2023-02-04T01:26:44;95300.22;;;0.22;70.22
50394;BME280;36308;46.312;25.288;2023-02-04T01:29:10;95286.66;;;0.12;69.86
50394;BME280;36308;46.312;25.288;2023-02-04T01:31:35;95302.88;;;0.22;70.16
50394;BME280;36308;46.312;25.288;2023-02-04T01:34:01;95296.56;;;0.23;69.68
50394;BME280;36308;46.312;25.288;2023-02-04T01:36:27;95293.31;;;0.21;70.18
50394;BME280;36308;46.312;25.288;2023-02-04T01:38:52;95287.00;;;0.22;69.82
50394;BME280;36308;46.312;25.288;2023-02-04T01:41:18;95259.81;;;0.08;69.95
50394;BME280;36308;46.312;25.288;2023-02-04T01:43:47;95289.84;;;0.20;70.46
50394;BME280;36308;46.312;25.288;2023-02-04T01:46:14;95290.69;;;0.21;69.98
50394;BME280;36308;46.312;25.288;2023-02-04T01:48:39;95287.44;;;0.19;70.04
50394;BME280;36308;46.312;25.288;2023-02-04T01:51:08;95285.41;;;0.21;69.89
50394;BME280;36308;46.312;25.288;2023-02-04T01:53:36;95284.56;;;0.20;70.38
50394;BME280;36308;46.312;25.288;2023-02-04T01:56:17;95273.63;;;0.17;69.84
50394;BME280;36308;46.312;25.288;2023-02-04T01:58:45;95273.63;;;0.17;70.29
50394;BME280;36308;46.312;25.288;2023-02-04T02:03:58;95275.81;;;0.20;69.91
50394;BME280;36308;46.312;25.288;2023-02-04T02:06:24;95271.59;;;0.19;70.62
50394;BME280;36308;46.312;25.288;2023-02-04T02:08:50;95260.66;;;0.09;70.07
50394;BME280;36308;46.312;25.288;2023-02-04T02:11:15;95272.59;;;0.18;70.31
50394;BME280;36308;46.312;25.288;2023-02-04T02:13:41;95267.13;;;0.13;70.13
50394;BME280;36308;46.312;25.288;2023-02-04T02:16:06;95269.78;;;0.13;70.27
50394;BME280;36308;46.312;25.288;2023-02-04T02:18:32;95278.06;;;0.16;70.69
50394;BME280;36308;46.312;25.288;2023-02-04T02:20:59;95271.59;;;0.19;69.98
50394;BME280;36308;46.312;25.288;2023-02-04T02:23:47;95279.28;;;0.20;70.68
50394;BME280;36308;46.312;25.288;2023-02-04T02:26:15;95282.97;;;0.19;70.30
50394;BME280;36308;46.312;25.288;2023-02-04T02:28:41;95280.13;;;0.21;69.94
50394;BME280;36308;46.312;25.288;2023-02-04T02:31:07;95275.03;;;0.19;70.03
50394;BME280;36308;46.312;25.288;2023-02-04T02:33:33;95280.13;;;0.21;70.06
50394;BME280;36308;46.312;25.288;2023-02-04T02:35:58;95282.16;;;0.19;70.35
50394;BME280;36308;46.312;25.288;2023-02-04T02:38:24;95276.03;;;0.18;69.94
50394;BME280;36308;46.312;25.288;2023-02-04T02:40:50;95275.22;;;0.18;70.03
50394;BME280;36308;46.312;25.288;2023-02-04T02:43:20;95268.69;;;0.20;70.65
50394;BME280;36308;46.312;25.288;2023-02-04T02:45:47;95267.91;;;0.20;70.04
50394;BME280;36308;46.312;25.288;2023-02-04T02:48:12;95271.59;;;0.19;70.54
50394;BME280;36308;46.312;25.288;2023-02-04T02:50:38;95253.72;;;0.08;70.24
50394;BME280;36308;46.312;25.288;2023-02-04T02:53:13;95264.25;;;0.21;70.39
50394;BME280;36308;46.312;25.288;2023-02-04T02:55:40;95268.94;;;0.19;69.98
50394;BME280;36308;46.312;25.288;2023-02-04T02:58:15;95273.19;;;0.20;70.06
50394;BME280;36308;46.312;25.288;2023-02-04T03:00:42;95270.75;;;0.18;69.50
50394;BME280;36308;46.312;25.288;2023-02-04T03:03:19;95257.75;;;0.17;69.98
50394;BME280;36308;46.312;25.288;2023-02-04T03:05:49;95269.34;;;0.16;70.34
50394;BME280;36308;46.312;25.288;2023-02-04T03:08:17;95254.31;;;0.10;69.93
50394;BME280;36308;46.312;25.288;2023-02-04T03:10:43;95269.94;;;0.18;70.16
50394;BME280;36308;46.312;25.288;2023-02-04T03:13:11;95258.59;;;0.11;70.42
50394;BME280;36308;46.312;25.288;2023-02-04T03:15:38;95259.00;;;0.08;69.87
50394;BME280;36308;46.312;25.288;2023-02-04T03:18:04;95265.94;;;0.09;70.36
50394;BME280;36308;46.312;25.288;2023-02-04T03:20:31;95268.34;;;0.10;70.60
50394;BME280;36308;46.312;25.288;2023-02-04T03:22:57;95267.53;;;0.10;70.02
50394;BME280;36308;46.312;25.288;2023-02-04T03:25:24;95261.66;;;0.08;70.12
50394;BME280;36308;46.312;25.288;2023-02-04T03:27:55;95261.44;;;0.09;70.30
50394;BME280;36308;46.312;25.288;2023-02-04T03:30:23;95250.91;;;0.03;70.23
50394;BME280;36308;46.312;25.288;2023-02-04T03:32:49;95266.75;;;0.09;70.43
50394;BME280;36308;46.312;25.288;2023-02-04T03:35:15;95261.84;;;0.06;70.47
50394;BME280;36308;46.312;25.288;2023-02-04T03:37:41;95264.28;;;0.08;69.84
50394;BME280;36308;46.312;25.288;2023-02-04T03:40:07;95263.69;;;0.06;70.50
50394;BME280;36308;46.312;25.288;2023-02-04T03:42:32;95267.97;;;0.07;70.29
50394;BME280;36308;46.312;25.288;2023-02-04T03:45:00;95261.06;;;0.06;70.75
50394;BME280;36308;46.312;25.288;2023-02-04T03:47:25;95258.41;;;0.06;70.15
50394;BME280;36308;46.312;25.288;2023-02-04T03:49:51;95250.91;;;0.03;70.04
50394;BME280;36308;46.312;25.288;2023-02-04T03:52:16;95253.31;;;0.04;70.23
50394;BME280;36308;46.312;25.288;2023-02-04T03:54:42;95253.56;;;0.03;70.14
50394;BME280;36308;46.312;25.288;2023-02-04T03:57:07;95254.56;;;0.02;70.60
50394;BME280;36308;46.312;25.288;2023-02-04T03:59:33;95244.84;;;-0.05;70.85
50394;BME280;36308;46.312;25.288;2023-02-04T04:01:58;95254.56;;;0.02;70.77
50394;BME280;36308;46.312;25.288;2023-02-04T04:04:24;95249.28;;;0.02;70.22
50394;BME280;36308;46.312;25.288;2023-02-04T04:06:49;95250.09;;;0.02;69.98
50394;BME280;36308;46.312;25.288;2023-02-04T04:09:15;95254.56;;;0.02;70.18
50394;BME280;36308;46.312;25.288;2023-02-04T04:11:40;95236.72;;;-0.03;70.76
50394;BME280;36308;46.312;25.288;2023-02-04T04:14:06;95243.19;;;0.01;70.77
50394;BME280;36308;46.312;25.288;2023-02-04T04:16:31;95229.81;;;-0.11;70.30
50394;BME280;36308;46.312;25.288;2023-02-04T04:18:57;95249.50;;;0.00;70.29
50394;BME280;36308;46.312;25.288;2023-02-04T04:21:22;95241.00;;;-0.09;70.33
50394;BME280;36308;46.312;25.288;2023-02-04T04:23:48;95250.94;;;-0.04;70.72
50394;BME280;36308;46.312;25.288;2023-02-04T04:26:14;95243.63;;;-0.09;70.86
50394;BME280;36308;46.312;25.288;2023-02-04T04:28:39;95255.00;;;-0.02;71.11
50394;BME280;36308;46.312;25.288;2023-02-04T04:31:05;95266.38;;;-0.01;70.84
50394;BME280;36308;46.312;25.288;2023-02-04T04:33:30;95251.16;;;-0.06;70.38
50394;BME280;36308;46.312;25.288;2023-02-04T04:35:56;95255.81;;;-0.01;70.50
50394;BME280;36308;46.312;25.288;2023-02-04T04:38:21;95256.00;;;-0.03;70.49
50394;BME280;36308;46.312;25.288;2023-02-04T04:40:47;95267.63;;;-0.04;70.51
50394;BME280;36308;46.312;25.288;2023-02-04T04:43:13;95254.19;;;-0.09;70.42
50394;BME280;36308;46.312;25.288;2023-02-04T04:45:38;95267.63;;;-0.04;71.09
50394;BME280;36308;46.312;25.288;2023-02-04T04:48:04;95264.97;;;-0.04;70.40
50394;BME280;36308;46.312;25.288;2023-02-04T04:50:29;95268.84;;;-0.06;71.14
50394;BME280;36308;46.312;25.288;2023-02-04T04:52:55;95264.38;;;-0.06;70.38
50394;BME280;36308;46.312;25.288;2023-02-04T04:55:20;95261.94;;;-0.07;71.13
50394;BME280;36308;46.312;25.288;2023-02-04T04:57:46;95253.22;;;-0.14;70.64
50394;BME280;36308;46.312;25.288;2023-02-04T05:00:15;95278.19;;;-0.04;70.42
50394;BME280;36308;46.312;25.288;2023-02-04T05:02:41;95255.88;;;-0.14;70.79
50394;BME280;36308;46.312;25.288;2023-02-04T05:05:08;95276.53;;;-0.05;70.59
50394;BME280;36308;46.312;25.288;2023-02-04T05:07:33;95273.69;;;-0.03;70.82
50394;BME280;36308;46.312;25.288;2023-02-04T05:09:59;95260.72;;;-0.11;71.21
50394;BME280;36308;46.312;25.288;2023-02-04T05:12:24;95279.59;;;-0.01;70.76
50394;BME280;36308;46.312;25.288;2023-02-04T05:14:50;95274.50;;;-0.03;70.92
50394;BME280;36308;46.312;25.288;2023-02-04T05:17:15;95254.19;;;-0.09;70.57
50394;BME280;36308;46.312;25.288;2023-02-04T05:19:41;95269.47;;;-0.11;71.16
50394;BME280;36308;46.312;25.288;2023-02-04T05:22:06;95271.88;;;-0.03;70.52
50394;BME280;36308;46.312;25.288;2023-02-04T05:24:32;95273.91;;;-0.05;70.83
50394;BME280;36308;46.312;25.288;2023-02-04T05:26:57;95281.44;;;-0.02;71.05
50394;BME280;36308;46.312;25.288;2023-02-04T05:29:23;95273.31;;;-0.07;70.84
50394;BME280;36308;46.312;25.288;2023-02-04T05:31:48;95274.75;;;-0.04;70.80
50394;BME280;36308;46.312;25.288;2023-02-04T05:34:14;95270.66;;;-0.07;70.35
50394;BME280;36308;46.312;25.288;2023-02-04T05:36:39;95280.22;;;-0.06;70.81
50394;BME280;36308;46.312;25.288;2023-02-04T05:39:04;95276.53;;;-0.05;71.21
50394;BME280;36308;46.312;25.288;2023-02-04T05:41:30;95265.22;;;-0.12;70.52
50394;BME280;36308;46.312;25.288;2023-02-04T05:43:55;95269.47;;;-0.11;70.61
50394;BME280;36308;46.312;25.288;2023-02-04T05:46:21;95269.66;;;-0.06;70.86
50394;BME280;36308;46.312;25.288;2023-02-04T05:48:46;95286.72;;;-0.02;70.65
50394;BME280;36308;46.312;25.288;2023-02-04T05:51:12;95280.63;;;-0.09;70.41
50394;BME280;36308;46.312;25.288;2023-02-04T05:53:37;95286.72;;;-0.02;70.77
50394;BME280;36308;46.312;25.288;2023-02-04T05:56:03;95287.13;;;-0.05;71.43
50394;BME280;36308;46.312;25.288;2023-02-04T05:58:29;95291.19;;;-0.02;70.70
50394;BME280;36308;46.312;25.288;2023-02-04T06:00:58;95300.53;;;0.01;70.97
50394;BME280;36308;46.312;25.288;2023-02-04T06:03:25;95304.78;;;0.02;71.45
50394;BME280;36308;46.312;25.288;2023-02-04T06:05:51;95287.72;;;-0.03;70.97
50394;BME280;36308;46.312;25.288;2023-02-04T06:08:16;95301.13;;;0.03;71.19
50394;BME280;36308;46.312;25.288;2023-02-04T06:10:42;95296.06;;;0.01;70.90
50394;BME280;36308;46.312;25.288;2023-02-04T06:13:07;95297.28;;;-0.02;71.07
50394;BME280;36308;46.312;25.288;2023-02-04T06:15:33;95305.38;;;0.04;71.19
50394;BME280;36308;46.312;25.288;2023-02-04T06:17:58;95298.50;;;0.03;70.72
50394;BME280;36308;46.312;25.288;2023-02-04T06:20:24;95311.09;;;0.01;71.35
50394;BME280;36308;46.312;25.288;2023-02-04T06:22:49;95317.59;;;0.05;71.07
50394;BME280;36308;46.312;25.288;2023-02-04T06:25:19;95315.56;;;0.07;70.74
50394;BME280;36308;46.312;25.288;2023-02-04T06:27:45;95313.09;;;0.05;71.25
50394;BME280;36308;46.312;25.288;2023-02-04T06:30:11;95320.00;;;0.06;70.79
50394;BME280;36308;46.312;25.288;2023-02-04T06:32:37;95317.59;;;0.05;71.17
50394;BME280;36308;46.312;25.288;2023-02-04T06:35:02;95318.59;;;0.04;70.83
50394;BME280;36308;46.312;25.288;2023-02-04T06:37:28;95318.59;;;0.04;71.47
50394;BME280;36308;46.312;25.288;2023-02-04T06:39:53;95342.16;;;0.12;71.54
50394;BME280;36308;46.312;25.288;2023-02-04T06:42:22;95342.75;;;0.14;71.16
50394;BME280;36308;46.312;25.288;2023-02-04T06:44:47;95343.19;;;0.11;71.19
50394;BME280;36308;46.312;25.288;2023-02-04T06:47:13;95338.91;;;0.10;71.13
50394;BME280;36308;46.312;25.288;2023-02-04T06:49:38;95350.88;;;0.19;70.65
50394;BME280;36308;46.312;25.288;2023-02-04T06:52:04;95344.41;;;0.15;71.10
50394;BME280;36308;46.312;25.288;2023-02-04T06:54:30;95341.53;;;0.16;71.21
50394;BME280;36308;46.312;25.288;2023-02-04T06:56:55;95361.03;;;0.22;70.64
50394;BME280;36308;46.312;25.288;2023-02-04T06:59:27;95347.03;;;0.15;70.75
50394;BME280;36308;46.312;25.288;2023-02-04T07:01:56;95361.63;;;0.24;71.16
50394;BME280;36308;46.312;25.288;2023-02-04T07:04:22;95373.41;;;0.28;71.34
50394;BME280;36308;46.312;25.288;2023-02-04T07:06:47;95361.22;;;0.27;71.44
50394;BME280;36308;46.312;25.288;2023-02-04T07:09:13;95363.03;;;0.33;71.38
50394;BME280;36308;46.312;25.288;2023-02-04T07:11:38;95360.59;;;0.32;71.16
50394;BME280;36308;46.312;25.288;2023-02-04T07:14:04;95332.53;;;0.24;70.84
50394;BME280;36308;46.312;25.288;2023-02-04T07:16:29;95353.22;;;0.40;71.14
50394;BME280;36308;46.312;25.288;2023-02-04T07:18:55;95355.47;;;0.44;70.72
50394;BME280;36308;46.312;25.288;2023-02-04T07:21:20;95341.03;;;0.39;70.77
50394;BME280;36308;46.312;25.288;2023-02-04T07:23:46;95356.03;;;0.46;70.63
50394;BME280;36308;46.312;25.288;2023-02-04T07:26:12;95355.44;;;0.50;70.73
50394;BME280;36308;46.312;25.288;2023-02-04T07:28:37;95357.44;;;0.55;70.69
50394;BME280;36308;46.312;25.288;2023-02-04T07:31:05;95357.22;;;0.56;70.38
50394;BME280;36308;46.312;25.288;2023-02-04T07:33:30;95356.00;;;0.59;71.16
50394;BME280;36308;46.312;25.288;2023-02-04T07:35:56;95339.72;;;0.55;70.43
50394;BME280;36308;46.312;25.288;2023-02-04T07:38:22;95354.09;;;0.66;71.04
50394;BME280;36308;46.312;25.288;2023-02-04T07:40:47;95353.09;;;0.67;70.66
50394;BME280;36308;46.312;25.288;2023-02-04T07:43:12;95357.16;;;0.70;70.21
50394;BME280;36308;46.312;25.288;2023-02-04T07:45:38;95361.19;;;0.72;70.29
50394;BME280;36308;46.312;25.288;2023-02-04T07:48:04;95359.16;;;0.74;70.28
50394;BME280;36308;46.312;25.288;2023-02-04T07:50:29;95355.50;;;0.75;70.80
50394;BME280;36308;46.312;25.288;2023-02-04T07:52:55;95355.50;;;0.75;70.43
50394;BME280;36308;46.312;25.288;2023-02-04T07:55:20;95346.34;;;0.71;70.67
50394;BME280;36308;46.312;25.288;2023-02-04T07:57:46;95358.75;;;0.77;70.00
50394;BME280;36308;46.312;25.288;2023-02-04T08:00:12;95355.88;;;0.79;70.47
50394;BME280;36308;46.312;25.288;2023-02-04T08:02:39;95360.34;;;0.78;70.48
50394;BME280;36308;46.312;25.288;2023-02-04T08:05:06;95360.75;;;0.82;69.96
50394;BME280;36308;46.312;25.288;2023-02-04T08:07:33;95359.34;;;0.79;70.25
50394;BME280;36308;46.312;25.288;2023-02-04T08:09:58;95363.19;;;0.84;70.65
50394;BME280;36308;46.312;25.288;2023-02-04T08:12:24;95362.59;;;0.82;70.47
50394;BME280;36308;46.312;25.288;2023-02-04T08:14:49;95357.09;;;0.76;70.04
50394;BME280;36308;46.312;25.288;2023-02-04T08:17:15;95371.91;;;0.84;69.73
50394;BME280;36308;46.312;25.288;2023-02-04T08:19:40;95367.88;;;0.82;69.45
50394;BME280;36308;46.312;25.288;2023-02-04T08:22:06;95369.72;;;0.81;70.20
50394;BME280;36308;46.312;25.288;2023-02-04T08:24:31;95366.03;;;0.82;70.03
50394;BME280;36308;46.312;25.288;2023-02-04T08:26:57;95345.31;;;0.72;70.13
50394;BME280;36308;46.312;25.288;2023-02-04T08:29:25;95361.97;;;0.79;69.72
50394;BME280;36308;46.312;25.288;2023-02-04T08:31:51;95365.22;;;0.82;70.22
50394;BME280;36308;46.312;25.288;2023-02-04T08:34:16;95367.06;;;0.81;70.36
50394;BME280;36308;46.312;25.288;2023-02-04T08:36:42;95358.28;;;0.80;70.47
50394;BME280;36308;46.312;25.288;2023-02-04T08:39:09;95356.69;;;0.79;70.36
50394;BME280;36308;46.312;25.288;2023-02-04T08:41:35;95358.69;;;0.84;70.06
50394;BME280;36308;46.312;25.288;2023-02-04T08:44:00;95365.22;;;0.82;69.75
50394;BME280;36308;46.312;25.288;2023-02-04T08:46:26;95363.81;;;0.79;70.12
50394;BME280;36308;46.312;25.288;2023-02-04T08:48:51;95366.47;;;0.79;70.25
50394;BME280;36308;46.312;25.288;2023-02-04T08:51:17;95362.19;;;0.78;69.87
50394;BME280;36308;46.312;25.288;2023-02-04T08:53:42;95364.19;;;0.83;69.77
50394;BME280;36308;46.312;25.288;2023-02-04T08:56:08;95368.47;;;0.84;69.75
50394;BME280;36308;46.312;25.288;2023-02-04T08:58:34;95374.38;;;0.86;69.80
50394;BME280;36308;46.312;25.288;2023-02-04T09:01:00;95380.25;;;0.88;70.43
50394;BME280;36308;46.312;25.288;2023-02-04T09:03:26;95381.88;;;0.89;69.71
50394;BME280;36308;46.312;25.288;2023-02-04T09:05:51;95381.50;;;0.85;69.99
50394;BME280;36308;46.312;25.288;2023-02-04T09:08:17;95385.31;;;0.89;70.10
50394;BME280;36308;46.312;25.288;2023-02-04T09:10:42;95396.28;;;0.93;69.78
50394;BME280;36308;46.312;25.288;2023-02-04T09:13:08;95398.09;;;0.99;70.08
50394;BME280;36308;46.312;25.288;2023-02-04T09:15:35;95390.75;;;1.01;70.60
50394;BME280;36308;46.312;25.288;2023-02-04T09:18:01;95397.25;;;1.05;70.50
50394;BME280;36308;46.312;25.288;2023-02-04T09:20:29;95393.16;;;1.09;70.25
50394;BME280;36308;46.312;25.288;2023-02-04T09:22:54;95384.59;;;1.07;70.48
50394;BME280;36308;46.312;25.288;2023-02-04T09:25:20;95388.66;;;1.10;69.76
50394;BME280;36308;46.312;25.288;2023-02-04T09:27:45;95384.41;;;1.09;69.89
50394;BME280;36308;46.312;25.288;2023-02-04T09:30:11;95392.72;;;1.12;69.47
50394;BME280;36308;46.312;25.288;2023-02-04T09:32:37;95387.25;;;1.07;69.59
50394;BME280;36308;46.312;25.288;2023-02-04T09:35:02;95395.97;;;1.14;69.98
50394;BME280;36308;46.312;25.288;2023-02-04T09:37:28;95394.94;;;1.15;69.91
50394;BME280;36308;46.312;25.288;2023-02-04T09:39:53;95393.47;;;1.19;70.39
50394;BME280;36308;46.312;25.288;2023-02-04T09:42:21;95381.09;;;1.13;70.44
50394;BME280;36308;46.312;25.288;2023-02-04T09:44:49;95397.31;;;1.24;70.25
50394;BME280;36308;46.312;25.288;2023-02-04T09:47:15;95391.44;;;1.21;69.74
50394;BME280;36308;46.312;25.288;2023-02-04T09:49:45;95391.63;;;1.20;69.73
50394;BME280;36308;46.312;25.288;2023-02-04T09:52:13;95402.22;;;1.27;70.35
50394;BME280;36308;46.312;25.288;2023-02-04T09:54:41;95401.16;;;1.28;70.25
50394;BME280;36308;46.312;25.288;2023-02-04T09:57:14;95393.81;;;1.30;70.40
50394;BME280;36308;46.312;25.288;2023-02-04T09:59:42;95385.88;;;1.30;69.72
50394;BME280;36308;46.312;25.288;2023-02-04T10:02:23;95390.09;;;1.37;70.10
50394;BME280;36308;46.312;25.288;2023-02-04T10:04:51;95383.34;;;1.41;69.70
50394;BME280;36308;46.312;25.288;2023-02-04T10:07:20;95399.41;;;1.47;69.04
50394;BME280;36308;46.312;25.288;2023-02-04T10:09:48;95373.81;;;1.34;69.36
50394;BME280;36308;46.312;25.288;2023-02-04T10:12:14;95386.34;;;1.45;69.06
50394;BME280;36308;46.312;25.288;2023-02-04T10:14:40;95378.84;;;1.42;69.07
50394;BME280;36308;46.312;25.288;2023-02-04T10:17:07;95389.59;;;1.47;68.48
50394;BME280;36308;46.312;25.288;2023-02-04T10:19:34;95388.84;;;1.40;68.72
50394;BME280;36308;46.312;25.288;2023-02-04T10:22:02;95371.19;;;1.34;69.29
50394;BME280;36308;46.312;25.288;2023-02-04T10:24:28;95375.44;;;1.35;69.44
50394;BME280;36308;46.312;25.288;2023-02-04T10:27:09;95392.16;;;1.35;69.71
50394;BME280;36308;46.312;25.288;2023-02-04T10:29:35;95388.47;;;1.36;69.58
50394;BME280;36308;46.312;25.288;2023-02-04T10:32:01;95378.72;;;1.30;69.30
50394;BME280;36308;46.312;25.288;2023-02-04T10:36:59;95382.38;;;1.36;70.20
50394;BME280;36308;46.312;25.288;2023-02-04T10:39:29;95392.31;;;1.40;69.96
50394;BME280;36308;46.312;25.288;2023-02-04T10:41:59;95402.69;;;1.42;69.38
50394;BME280;36308;46.312;25.288;2023-02-04T10:44:29;95393.72;;;1.43;69.84
50394;BME280;36308;46.312;25.288;2023-02-04T10:47:06;95382.22;;;1.31;70.01
50394;BME280;36308;46.312;25.288;2023-02-04T10:49:39;95391.31;;;1.35;69.39
50394;BME280;36308;46.312;25.288;2023-02-04T10:52:14;95387.06;;;1.34;69.07
50394;BME280;36308;46.312;25.288;2023-02-04T10:54:41;95383.69;;;1.27;69.77
50394;BME280;36308;46.312;25.288;2023-02-04T10:57:27;95396.81;;;1.40;69.68
50394;BME280;36308;46.312;25.288;2023-02-04T10:59:56;95394.75;;;1.42;69.42
50394;BME280;36308;46.312;25.288;2023-02-04T11:05:22;95392.91;;;1.42;69.64
50394;BME280;36308;46.312;25.288;2023-02-04T11:07:49;95385.75;;;1.43;70.28
50394;BME280;36308;46.312;25.288;2023-02-04T11:10:20;95373.38;;;1.37;70.20
50394;BME280;36308;46.312;25.288;2023-02-04T11:12:59;95387.53;;;1.49;69.81
50394;BME280;36308;46.312;25.288;2023-02-04T11:15:53;95389.13;;;1.57;70.39
50394;BME280;36308;46.312;25.288;2023-02-04T11:20:50;95410.91;;;1.59;70.25
50394;BME280;36308;46.312;25.288;2023-02-04T11:26:12;95415.13;;;1.67;69.97
50394;BME280;36308;46.312;25.288;2023-02-04T11:31:38;95406.22;;;1.61;69.63
50394;BME280;36308;46.312;25.288;2023-02-04T11:39:41;95412.28;;;1.68;69.63
50394;BME280;36308;46.312;25.288;2023-02-04T11:42:22;95410.44;;;1.69;69.17
50394;BME280;36308;46.312;25.288;2023-02-04T11:44:53;95391.56;;;1.58;69.48
50394;BME280;36308;46.312;25.288;2023-02-04T11:47:23;95405.56;;;1.66;69.42
50394;BME280;36308;46.312;25.288;2023-02-04T11:49:55;95415.72;;;1.69;69.59
50394;BME280;36308;46.312;25.288;2023-02-04T11:52:22;95412.03;;;1.70;69.49
50394;BME280;36308;46.312;25.288;2023-02-04T11:54:55;95413.09;;;1.69;69.33
50394;BME280;36308;46.312;25.288;2023-02-04T11:57:22;95418.97;;;1.71;69.27
50394;BME280;36308;46.312;25.288;2023-02-04T11:59:47;95413.47;;;1.72;69.52
50394;BME280;36308;46.312;25.288;2023-02-04T12:02:16;95413.09;;;1.69;69.60
50394;BME280;36308;46.312;25.288;2023-02-04T12:04:55;95412.44;;;1.73;69.85
50394;BME280;36308;46.312;25.288;2023-02-04T12:07:27;95401.28;;;1.65;69.26
50394;BME280;36308;46.312;25.288;2023-02-04T12:09:52;95399.66;;;1.64;69.28
50394;BME280;36308;46.312;25.288;2023-02-04T12:12:41;95420.16;;;1.75;69.13
50394;BME280;36308;46.312;25.288;2023-02-04T12:15:14;95421.78;;;1.76;69.59
50394;BME280;36308;46.312;25.288;2023-02-04T12:17:43;95420.97;;;1.75;69.49
50394;BME280;36308;46.312;25.288;2023-02-04T12:20:11;95420.75;;;1.77;69.53
50394;BME280;36308;46.312;25.288;2023-02-04T12:22:36;95413.88;;;1.69;69.17
50394;BME280;36308;46.312;25.288;2023-02-04T12:25:02;95418.31;;;1.75;69.94
50394;BME280;36308;46.312;25.288;2023-02-04T12:27:27;95433.34;;;1.81;70.16
50394;BME280;36308;46.312;25.288;2023-02-04T12:29:53;95434.16;;;1.82;69.83
50394;BME280;36308;46.312;25.288;2023-02-04T12:32:18;95433.75;;;1.85;69.64
50394;BME280;36308;46.312;25.288;2023-02-04T12:34:44;95415.47;;;1.77;69.73
50394;BME280;36308;46.312;25.288;2023-02-04T12:37:09;95426.38;;;1.87;69.56
50394;BME280;36308;46.312;25.288;2023-02-04T12:39:35;95439.41;;;1.89;70.04
50394;BME280;36308;46.312;25.288;2023-02-04T12:42:00;95439.19;;;1.90;69.55
50394;BME280;36308;46.312;25.288;2023-02-04T12:44:26;95430.84;;;1.87;69.41
50394;BME280;36308;46.312;25.288;2023-02-04T12:46:52;95438.53;;;1.95;69.42
50394;BME280;36308;46.312;25.288;2023-02-04T12:49:19;95446.28;;;1.96;69.48
50394;BME280;36308;46.312;25.288;2023-02-04T12:51:44;95432.03;;;1.91;69.66
50394;BME280;36308;46.312;25.288;2023-02-04T12:54:10;95447.47;;;2.00;70.05
50394;BME280;36308;46.312;25.288;2023-02-04T12:56:35;95434.66;;;1.97;69.88
50394;BME280;36308;46.312;25.288;2023-02-04T12:59:01;95438.50;;;2.01;69.38
50394;BME280;36308;46.312;25.288;2023-02-04T13:01:26;95449.25;;;2.07;69.36
50394;BME280;36308;46.312;25.288;2023-02-04T13:03:52;95451.88;;;2.07;69.38
50394;BME280;36308;46.312;25.288;2023-02-04T13:06:17;95446.78;;;2.05;69.01
50394;BME280;36308;46.312;25.288;2023-02-04T13:08:43;95456.38;;;2.06;68.93
50394;BME280;36308;46.312;25.288;2023-02-04T13:11:08;95459.63;;;2.08;69.08
50394;BME280;36308;46.312;25.288;2023-02-04T13:13:34;95470.63;;;2.12;69.30
50394;BME280;36308;46.312;25.288;2023-02-04T13:15:59;95467.72;;;2.13;69.24
50394;BME280;36308;46.312;25.288;2023-02-04T13:18:24;95468.56;;;2.14;68.63